Aérodrome :
LOGIN :

S'inscrire | Disclaimer

   EN    FR    IT 

 










Légende :    VFR   VFR Marginal   IFR   IFR Intensif   IFR Très Intensif
Visi : 
Plafond : 
>= 8 km
>= 3000ft
5 à 8 km
1000 à 3000 ft
1500m à 5 km
500 à 1000 ft
800 à 1500m
200 à 500 ft
< 800m
< 200 ft
Symboles :   Orages  Brouillard  Fortes neiges  Fortes précipitations  Vent > 20 kt
SIGMETs :   Divers  Orages  Givrage  Turbulence  Onde Orograph.  Cendres Volcan.






- Altitude de l'aérodrome : 132 ft


EGXE - RAF Leeming

DERNIER METAR :
  • 261720Z 24007KT 9999 FEW028CB 02/M01 Q1003 NOSIG RMK BLU BLU

METARs EXPIRÉS :
  • 261650Z 24010KT 9999 FEW028CB 03/MS00 Q1003 NOSIG RMK BLU BLU
  • 261620Z 27020KT 9999 VCSH SCT028CB SCT250 03/00 Q1003 NOSIG RMK BLU BLU
  • 261550Z 26016KT 9999 FEW028CB 06/M01 Q1002 NOSIG RMK BLU BLU
  • 261520Z 27016KT 9999 FEW032CB 07/M02 Q1002 NOSIG RMK BLU BLU
  • 261450Z 27016KT 9999 FEW040 07/M03 Q1002 NOSIG RMK BLU BLU

TAF TAF EGXE
Valide du 26 à 15h jusqu'au 26 à 19h UTC


261326Z 2615/2619 30014KT 9999 FEW030
TEMPO 2615/2617 30015G25KT



MET'MAP, la Météo Aéronautique d'un coup d'oeil ! - Copyright ORBIFLY Décembre 2007 - Disclaimer

ORBIFLY MET'MAP TEAM :

Programmation & Développement : Alexandra Zaïnal
Sur une idée originale de : Baudouin d'Aumeries
Assistance à la programmation : Marc-Olivier Méhu
Soutien technique & logistique : Manuel Goepfert

Contact : metmap@orbifly.com




SOURCES & CREDITS :

   NOAA